Wetterdaten: Woche 11.08.14 - 17.08.14 (KW33)
Datum Zeit Temp. A. Feuchte A. Luftdruck Regen Wind Richtung Sonnenschein ET UV Solar Taupunkt Windchill Windben
11.08.2014 00:00 18,3 C 89 % 1009,4 hPa 0,8 l/m 8,4 km/h (2 Bft) SO 0,00 h 0,051 mm 0,0 UV-I 0 W/m 16,4 C 17,2 C 13,6 km/h (3 Bft)
11.08.2014 01:00 17,7 C 93 % 1009,1 hPa 0,0 l/m 3,2 km/h (1 Bft) SO 0,00 h 0,025 mm 0,0 UV-I 0 W/m 16,6 C 17,7 C 5,7 km/h (1 Bft)
11.08.2014 02:00 17,9 C 93 % 1009,1 hPa 0,0 l/m 3,5 km/h (1 Bft) S-SW 0,00 h 0,000 mm 0,0 UV-I 0 W/m 16,7 C 17,9 C 6,3 km/h (2 Bft)
11.08.2014 03:00 18,0 C 93 % 1009,3 hPa 0,0 l/m 4,5 km/h (1 Bft) S 0,00 h 0,000 mm 0,0 UV-I 0 W/m 16,9 C 18,0 C 6,9 km/h (2 Bft)
11.08.2014 04:00 17,9 C 94 % 1009,2 hPa 0,0 l/m 3,3 km/h (1 Bft) S 0,00 h 0,000 mm 0,0 UV-I 0 W/m 16,9 C 17,9 C 5,9 km/h (2 Bft)
11.08.2014 05:00 18,0 C 93 % 1009,7 hPa 0,0 l/m 4,5 km/h (1 Bft) SW 0,00 h 0,000 mm 0,0 UV-I 0 W/m 16,9 C 18,0 C 7,5 km/h (2 Bft)
11.08.2014 06:00 18,0 C 93 % 1010,2 hPa 0,0 l/m 4,9 km/h (1 Bft) SW 0,00 h 0,000 mm 0,0 UV-I 10 W/m 16,8 C 17,8 C 8,1 km/h (2 Bft)
11.08.2014 07:00 17,8 C 92 % 1010,3 hPa 0,0 l/m 5,1 km/h (1 Bft) W-SW 0,13 h 0,000 mm 0,5 UV-I 26 W/m 16,4 C 17,6 C 8,3 km/h (2 Bft)
11.08.2014 08:00 17,8 C 91 % 1010,7 hPa 0,0 l/m 5,3 km/h (1 Bft) SW 0,93 h 0,025 mm 0,6 UV-I 94 W/m 16,4 C 17,7 C 8,8 km/h (2 Bft)
11.08.2014 09:00 17,8 C 85 % 1011,5 hPa 0,0 l/m 9,5 km/h (2 Bft) W-SW 0,53 h 0,051 mm 0,8 UV-I 63 W/m 15,3 C 16,4 C 14,2 km/h (3 Bft)
11.08.2014 10:00 17,0 C 78 % 1012,1 hPa 0,0 l/m 9,7 km/h (2 Bft) W-NW 0,65 h 0,051 mm 1,2 UV-I 102 W/m 13,2 C 15,6 C 14,4 km/h (3 Bft)
11.08.2014 11:00 17,9 C 69 % 1012,3 hPa 0,0 l/m 10,6 km/h (2 Bft) W-SW 1,00 h 0,076 mm 3,3 UV-I 390 W/m 12,0 C 16,1 C 16,3 km/h (3 Bft)
11.08.2014 12:00 20,0 C 59 % 1012,4 hPa 0,0 l/m 10,6 km/h (2 Bft) W 1,00 h 0,279 mm 5,4 UV-I 761 W/m 11,7 C 18,5 C 16,6 km/h (3 Bft)
11.08.2014 13:00 20,2 C 48 % 1012,6 hPa 0,0 l/m 11,6 km/h (2 Bft) W 1,00 h 0,483 mm 3,3 UV-I 394 W/m 9,0 C 18,5 C 17,0 km/h (3 Bft)
11.08.2014 14:00 19,7 C 49 % 1012,5 hPa 0,0 l/m 10,2 km/h (2 Bft) W 1,00 h 0,305 mm 3,6 UV-I 490 W/m 8,6 C 18,4 C 15,6 km/h (3 Bft)
11.08.2014 15:00 21,0 C 46 % 1012,6 hPa 0,0 l/m 9,3 km/h (2 Bft) W-SW 1,00 h 0,356 mm 3,6 UV-I 520 W/m 9,0 C 20,0 C 13,9 km/h (3 Bft)
11.08.2014 16:00 20,8 C 47 % 1012,7 hPa 0,0 l/m 9,3 km/h (2 Bft) W 1,00 h 0,381 mm 2,4 UV-I 407 W/m 9,0 C 19,8 C 14,3 km/h (3 Bft)
11.08.2014 17:00 20,9 C 48 % 1012,3 hPa 0,0 l/m 7,2 km/h (2 Bft) W 1,00 h 0,305 mm 1,7 UV-I 397 W/m 9,3 C 20,3 C 11,5 km/h (2 Bft)
11.08.2014 18:00 20,0 C 50 % 1012,4 hPa 0,0 l/m 7,9 km/h (2 Bft) W-SW 1,00 h 0,279 mm 0,7 UV-I 90 W/m 9,2 C 19,4 C 11,8 km/h (2 Bft)
11.08.2014 19:00 19,3 C 54 % 1012,5 hPa 0,0 l/m 4,1 km/h (1 Bft) W-SW 0,23 h 0,127 mm 0,0 UV-I 41 W/m 9,7 C 19,2 C 6,7 km/h (2 Bft)
11.08.2014 20:00 17,5 C 63 % 1012,8 hPa 0,0 l/m 4,5 km/h (1 Bft) S 0,00 h 0,051 mm 0,0 UV-I 11 W/m 10,3 C 17,5 C 7,3 km/h (2 Bft)
11.08.2014 21:00 16,0 C 73 % 1013,4 hPa 0,0 l/m 4,8 km/h (1 Bft) S 0,00 h 0,025 mm 0,0 UV-I 0 W/m 11,0 C 16,0 C 7,4 km/h (2 Bft)
11.08.2014 22:00 15,2 C 76 % 1013,7 hPa 0,0 l/m 2,7 km/h (1 Bft) S 0,00 h 0,025 mm 0,0 UV-I 0 W/m 11,1 C 15,2 C 4,8 km/h (1 Bft)
11.08.2014 23:00 14,5 C 81 % 1013,8 hPa 0,0 l/m 0,2 km/h (0 Bft) SO 0,00 h 0,025 mm 0,0 UV-I 0 W/m 11,2 C 14,5 C 0,9 km/h (0 Bft)
12.08.2014 00:00 14,5 C 84 % 1013,9 hPa 0,4 l/m 0,6 km/h (0 Bft) O 0,00 h 0,025 mm 0,0 UV-I 0 W/m 11,8 C 14,5 C 1,9 km/h (1 Bft)
12.08.2014 01:00 14,0 C 91 % 1014,0 hPa 0,0 l/m 0,6 km/h (0 Bft) S-SO 0,00 h 0,025 mm 0,0 UV-I 0 W/m 12,5 C 14,0 C 1,5 km/h (1 Bft)
12.08.2014 02:00 14,3 C 92 % 1014,0 hPa 0,0 l/m 0,9 km/h (0 Bft) S 0,00 h 0,000 mm 0,0 UV-I 0 W/m 13,0 C 14,3 C 2,3 km/h (1 Bft)
12.08.2014 03:00 14,3 C 93 % 1013,7 hPa 0,0 l/m 1,8 km/h (1 Bft) S 0,00 h 0,000 mm 0,0 UV-I 0 W/m 13,1 C 14,3 C 3,4 km/h (1 Bft)
12.08.2014 04:00 14,2 C 92 % 1013,7 hPa 0,0 l/m 0,9 km/h (0 Bft) W-SW 0,00 h 0,000 mm 0,0 UV-I 0 W/m 12,9 C 14,2 C 2,6 km/h (1 Bft)
12.08.2014 05:00 13,7 C 91 % 1013,8 hPa 0,0 l/m 0,7 km/h (0 Bft) S-SW 0,00 h 0,000 mm 0,0 UV-I 0 W/m 12,2 C 13,7 C 2,2 km/h (1 Bft)
12.08.2014 06:00 13,0 C 92 % 1013,7 hPa 0,0 l/m 1,5 km/h (1 Bft) S 0,00 h 0,000 mm 0,0 UV-I 12 W/m 11,7 C 13,0 C 3,0 km/h (1 Bft)
12.08.2014 07:00 13,4 C 89 % 1013,9 hPa 0,0 l/m 3,6 km/h (1 Bft) S-SW 0,33 h 0,000 mm 0,0 UV-I 43 W/m 11,6 C 13,4 C 6,2 km/h (2 Bft)
12.08.2014 08:00 14,3 C 85 % 1014,2 hPa 0,0 l/m 4,5 km/h (1 Bft) S-SW 1,00 h 0,025 mm 0,8 UV-I 137 W/m 11,8 C 14,0 C 7,5 km/h (2 Bft)
12.08.2014 09:00 15,3 C 79 % 1014,4 hPa 0,0 l/m 8,5 km/h (2 Bft) S-SW 1,00 h 0,076 mm 1,5 UV-I 228 W/m 11,8 C 14,2 C 13,8 km/h (3 Bft)
12.08.2014 10:00 16,2 C 74 % 1014,6 hPa 0,0 l/m 10,0 km/h (2 Bft) W-SW 1,00 h 0,152 mm 2,4 UV-I 238 W/m 11,6 C 14,5 C 15,5 km/h (3 Bft)
12.08.2014 11:00 17,5 C 69 % 1014,3 hPa 0,0 l/m 10,0 km/h (2 Bft) SW 1,00 h 0,203 mm 3,1 UV-I 488 W/m 11,8 C 15,9 C 16,2 km/h (3 Bft)
12.08.2014 12:00 18,9 C 61 % 1014,0 hPa 0,0 l/m 12,6 km/h (3 Bft) W-SW 1,00 h 0,279 mm 4,6 UV-I 603 W/m 11,2 C 16,7 C 19,2 km/h (3 Bft)
12.08.2014 13:00 19,7 C 56 % 1013,7 hPa 0,0 l/m 13,0 km/h (3 Bft) SW 1,00 h 0,381 mm 4,4 UV-I 565 W/m 10,7 C 17,5 C 20,7 km/h (4 Bft)
12.08.2014 14:00 18,1 C 61 % 1013,5 hPa 0,0 l/m 8,5 km/h (2 Bft) W 0,47 h 0,406 mm 0,9 UV-I 60 W/m 10,5 C 17,2 C 13,0 km/h (3 Bft)
12.08.2014 15:00 19,1 C 59 % 1013,1 hPa 0,0 l/m 7,6 km/h (2 Bft) W-SW 1,00 h 0,076 mm 2,4 UV-I 311 W/m 11,0 C 18,6 C 11,2 km/h (2 Bft)
12.08.2014 16:00 20,0 C 55 % 1012,5 hPa 0,0 l/m 5,6 km/h (1 Bft) W-SW 1,00 h 0,229 mm 1,7 UV-I 247 W/m 10,7 C 19,8 C 9,0 km/h (2 Bft)
12.08.2014 17:00 19,4 C 55 % 1012,3 hPa 0,0 l/m 9,3 km/h (2 Bft) S-SW 1,00 h 0,178 mm 1,1 UV-I 203 W/m 10,2 C 18,2 C 14,7 km/h (3 Bft)
12.08.2014 18:00 19,4 C 55 % 1012,1 hPa 0,0 l/m 8,4 km/h (2 Bft) S 1,00 h 0,178 mm 0,7 UV-I 153 W/m 10,2 C 18,6 C 13,2 km/h (3 Bft)
12.08.2014 19:00 19,0 C 55 % 1011,9 hPa 0,0 l/m 7,5 km/h (2 Bft) S 0,48 h 0,152 mm 0,0 UV-I 49 W/m 9,6 C 18,3 C 12,1 km/h (2 Bft)
12.08.2014 20:00 17,4 C 61 % 1011,8 hPa 0,0 l/m 2,6 km/h (1 Bft) S 0,00 h 0,076 mm 0,0 UV-I 11 W/m 9,7 C 17,3 C 4,8 km/h (1 Bft)
12.08.2014 21:00 15,1 C 73 % 1012,0 hPa 0,0 l/m 2,0 km/h (1 Bft) O 0,00 h 0,025 mm 0,0 UV-I 0 W/m 10,3 C 15,0 C 4,0 km/h (1 Bft)
12.08.2014 22:00 13,9 C 81 % 1012,2 hPa 0,0 l/m 1,8 km/h (1 Bft) O 0,00 h 0,025 mm 0,0 UV-I 0 W/m 10,6 C 13,9 C 3,8 km/h (1 Bft)
12.08.2014 23:00 14,5 C 82 % 1012,4 hPa 0,0 l/m 3,3 km/h (1 Bft) S-SO 0,00 h 0,025 mm 0,0 UV-I 0 W/m 11,4 C 14,3 C 5,6 km/h (1 Bft)
13.08.2014 00:00 15,2 C 79 % 1012,2 hPa 0,0 l/m 6,4 km/h (2 Bft) S-SO 0,00 h 0,025 mm 0,0 UV-I 0 W/m 11,5 C 14,7 C 10,4 km/h (2 Bft)
13.08.2014 01:00 14,4 C 80 % 1011,7 hPa 0,0 l/m 1,0 km/h (0 Bft) O 0,00 h 0,025 mm 0,0 UV-I 0 W/m 11,0 C 14,4 C 2,5 km/h (1 Bft)
13.08.2014 02:00 12,9 C 85 % 1011,0 hPa 0,0 l/m 0,3 km/h (0 Bft) O-SO 0,00 h 0,025 mm 0,0 UV-I 0 W/m 10,5 C 12,9 C 1,3 km/h (1 Bft)
13.08.2014 03:00 11,5 C 90 % 1010,5 hPa 0,0 l/m 0,0 km/h (0 Bft) N 0,00 h 0,000 mm 0,0 UV-I 0 W/m 9,9 C 11,5 C 0,0 km/h (0 Bft)
13.08.2014 04:00 10,3 C 93 % 1010,1 hPa 0,0 l/m 0,1 km/h (0 Bft) S-SO 0,00 h 0,000 mm 0,0 UV-I 0 W/m 9,2 C 10,3 C 0,5 km/h (0 Bft)
13.08.2014 05:00 9,5 C 93 % 1009,5 hPa 0,0 l/m 0,1 km/h (0 Bft) NO 0,00 h 0,000 mm 0,0 UV-I 0 W/m 8,5 C 9,5 C 0,5 km/h (0 Bft)
13.08.2014 06:00 9,5 C 94 % 1009,0 hPa 0,0 l/m 0,0 km/h (0 Bft) N 0,00 h 0,000 mm 0,0 UV-I 26 W/m 8,6 C 9,5 C 0,1 km/h (0 Bft)
13.08.2014 07:00 10,6 C 93 % 1008,5 hPa 0,0 l/m 0,3 km/h (0 Bft) O-NO 0,87 h 0,000 mm 0,5 UV-I 92 W/m 9,5 C 10,6 C 0,7 km/h (0 Bft)
13.08.2014 08:00 14,3 C 81 % 1008,1 hPa 0,0 l/m 1,5 km/h (1 Bft) O-NO 1,00 h 0,051 mm 0,8 UV-I 146 W/m 11,1 C 14,3 C 3,8 km/h (1 Bft)
13.08.2014 09:00 15,7 C 75 % 1007,5 hPa 0,0 l/m 1,8 km/h (1 Bft) O 1,00 h 0,076 mm 0,8 UV-I 120 W/m 11,2 C 15,7 C 4,3 km/h (1 Bft)
13.08.2014 10:00 15,6 C 73 % 1007,1 hPa 0,0 l/m 3,0 km/h (1 Bft) O 1,00 h 0,076 mm 1,0 UV-I 120 W/m 10,8 C 15,6 C 6,5 km/h (2 Bft)
13.08.2014 11:00 16,3 C 72 % 1006,5 hPa 0,0 l/m 1,7 km/h (1 Bft) O-NO 1,00 h 0,076 mm 1,7 UV-I 198 W/m 11,1 C 16,3 C 3,8 km/h (1 Bft)
13.08.2014 12:00 17,1 C 67 % 1006,2 hPa 0,0 l/m 2,1 km/h (1 Bft) O-NO 1,00 h 0,127 mm 2,2 UV-I 237 W/m 11,0 C 17,1 C 4,2 km/h (1 Bft)
13.08.2014 13:00 17,2 C 69 % 1005,6 hPa 0,0 l/m 2,2 km/h (1 Bft) O 1,00 h 0,152 mm 1,9 UV-I 200 W/m 11,4 C 17,2 C 4,5 km/h (1 Bft)
13.08.2014 14:00 17,4 C 70 % 1005,1 hPa 0,0 l/m 2,0 km/h (1 Bft) O 1,00 h 0,127 mm 1,5 UV-I 167 W/m 11,9 C 17,4 C 4,6 km/h (1 Bft)
13.08.2014 15:00 16,4 C 77 % 1004,8 hPa 0,0 l/m 3,9 km/h (1 Bft) SO 1,00 h 0,102 mm 1,0 UV-I 125 W/m 12,4 C 16,4 C 7,3 km/h (2 Bft)
13.08.2014 16:00 15,7 C 82 % 1004,5 hPa 0,0 l/m 1,9 km/h (1 Bft) O-SO 0,88 h 0,076 mm 0,5 UV-I 60 W/m 12,7 C 15,7 C 4,0 km/h (1 Bft)
13.08.2014 17:00 15,8 C 84 % 1004,0 hPa 0,0 l/m 3,2 km/h (1 Bft) SO 0,83 h 0,051 mm 0,6 UV-I 76 W/m 13,2 C 15,8 C 5,8 km/h (2 Bft)
13.08.2014 18:00 15,7 C 86 % 1004,4 hPa 0,8 l/m 3,8 km/h (1 Bft) S 0,08 h 0,051 mm 0,5 UV-I 23 W/m 13,4 C 15,7 C 6,1 km/h (2 Bft)
13.08.2014 19:00 14,6 C 93 % 1004,8 hPa 1,2 l/m 3,3 km/h (1 Bft) S 0,00 h 0,025 mm 0,0 UV-I 12 W/m 13,5 C 14,6 C 5,8 km/h (2 Bft)
13.08.2014 20:00 14,5 C 95 % 1004,9 hPa 0,0 l/m 6,1 km/h (2 Bft) S 0,00 h 0,000 mm 0,0 UV-I 5 W/m 13,6 C 14,1 C 9,3 km/h (2 Bft)
13.08.2014 21:00 14,6 C 94 % 1005,3 hPa 0,0 l/m 7,3 km/h (2 Bft) S 0,00 h 0,000 mm 0,0 UV-I 0 W/m 13,6 C 13,9 C 11,8 km/h (2 Bft)
13.08.2014 22:00 14,5 C 93 % 1005,9 hPa 0,0 l/m 7,5 km/h (2 Bft) S-SW 0,00 h 0,000 mm 0,0 UV-I 0 W/m 13,4 C 13,5 C 12,1 km/h (2 Bft)
13.08.2014 23:00 13,8 C 90 % 1006,4 hPa 0,0 l/m 12,9 km/h (3 Bft) W-SW 0,00 h 0,000 mm 0,0 UV-I 0 W/m 12,2 C 10,6 C 20,9 km/h (4 Bft)
14.08.2014 00:00 13,1 C 89 % 1007,0 hPa 0,0 l/m 13,4 km/h (3 Bft) W-SW 0,00 h 0,025 mm 0,0 UV-I 0 W/m 11,3 C 9,8 C 20,9 km/h (4 Bft)
14.08.2014 01:00 12,9 C 90 % 1007,8 hPa 0,0 l/m 11,5 km/h (2 Bft) W-SW 0,00 h 0,025 mm 0,0 UV-I 0 W/m 11,3 C 10,2 C 17,6 km/h (3 Bft)
14.08.2014 02:00 12,9 C 91 % 1008,5 hPa 0,8 l/m 8,1 km/h (2 Bft) W-SW 0,00 h 0,025 mm 0,0 UV-I 0 W/m 11,5 C 11,6 C 12,5 km/h (3 Bft)
14.08.2014 03:00 12,7 C 95 % 1009,2 hPa 0,4 l/m 7,7 km/h (2 Bft) W 0,00 h 0,000 mm 0,0 UV-I 0 W/m 11,8 C 11,8 C 11,7 km/h (2 Bft)
14.08.2014 04:00 12,7 C 94 % 1009,9 hPa 0,0 l/m 7,5 km/h (2 Bft) W 0,00 h 0,000 mm 0,0 UV-I 0 W/m 11,8 C 11,8 C 11,6 km/h (2 Bft)
14.08.2014 05:00 12,6 C 94 % 1010,5 hPa 0,0 l/m 4,9 km/h (1 Bft) W-SW 0,00 h 0,000 mm 0,0 UV-I 0 W/m 11,7 C 12,5 C 8,0 km/h (2 Bft)
14.08.2014 06:00 12,8 C 94 % 1011,0 hPa 0,0 l/m 4,9 km/h (1 Bft) W-SW 0,00 h 0,000 mm 0,0 UV-I 13 W/m 11,8 C 12,7 C 8,6 km/h (2 Bft)
14.08.2014 07:00 13,0 C 93 % 1011,5 hPa 0,0 l/m 6,4 km/h (2 Bft) W-SW 0,27 h 0,000 mm 0,0 UV-I 43 W/m 11,9 C 12,5 C 10,2 km/h (2 Bft)
14.08.2014 08:00 13,6 C 90 % 1011,8 hPa 0,0 l/m 6,4 km/h (2 Bft) W-SW 0,98 h 0,025 mm 0,7 UV-I 115 W/m 11,9 C 13,0 C 10,2 km/h (2 Bft)
14.08.2014 09:00 14,9 C 83 % 1011,9 hPa 0,0 l/m 6,2 km/h (2 Bft) W-SW 1,00 h 0,076 mm 1,8 UV-I 392 W/m 12,0 C 14,3 C 9,8 km/h (2 Bft)
14.08.2014 10:00 16,3 C 73 % 1012,1 hPa 0,0 l/m 8,4 km/h (2 Bft) W-SW 1,00 h 0,229 mm 2,8 UV-I 388 W/m 11,4 C 15,2 C 13,1 km/h (3 Bft)
14.08.2014 11:00 16,7 C 68 % 1012,4 hPa 0,0 l/m 8,4 km/h (2 Bft) W-SW 1,00 h 0,279 mm 2,9 UV-I 368 W/m 10,8 C 15,6 C 13,0 km/h (3 Bft)
14.08.2014 12:00 16,8 C 68 % 1012,4 hPa 0,0 l/m 8,1 km/h (2 Bft) W-SW 1,00 h 0,229 mm 2,9 UV-I 316 W/m 10,7 C 15,8 C 12,8 km/h (3 Bft)
14.08.2014 13:00 17,1 C 67 % 1012,4 hPa 0,0 l/m 8,6 km/h (2 Bft) SW 1,00 h 0,203 mm 2,9 UV-I 320 W/m 10,9 C 16,1 C 14,2 km/h (3 Bft)
14.08.2014 14:00 17,2 C 67 % 1012,0 hPa 0,0 l/m 10,4 km/h (2 Bft) SW 1,00 h 0,203 mm 3,2 UV-I 360 W/m 11,1 C 15,5 C 16,1 km/h (3 Bft)
14.08.2014 15:00 17,4 C 67 % 1011,7 hPa 0,0 l/m 9,0 km/h (2 Bft) W 1,00 h 0,254 mm 2,1 UV-I 269 W/m 11,1 C 16,2 C 13,7 km/h (3 Bft)
14.08.2014 16:00 16,3 C 78 % 1011,6 hPa 0,0 l/m 6,9 km/h (2 Bft) W-NW 1,00 h 0,178 mm 1,9 UV-I 370 W/m 12,5 C 15,8 C 10,3 km/h (2 Bft)
14.08.2014 17:00 18,1 C 66 % 1011,3 hPa 0,0 l/m 8,8 km/h (2 Bft) W-SW 1,00 h 0,229 mm 1,5 UV-I 329 W/m 11,5 C 17,0 C 13,2 km/h (3 Bft)
14.08.2014 18:00 17,5 C 62 % 1011,4 hPa 0,0 l/m 8,2 km/h (2 Bft) W-SW 0,37 h 0,229 mm 0,9 UV-I 84 W/m 10,1 C 16,6 C 13,1 km/h (3 Bft)
14.08.2014 19:00 16,0 C 74 % 1011,8 hPa 0,0 l/m 7,6 km/h (2 Bft) NW 0,25 h 0,102 mm 0,0 UV-I 34 W/m 11,2 C 15,1 C 11,4 km/h (2 Bft)
14.08.2014 20:00 14,2 C 79 % 1012,1 hPa 0,0 l/m 0,6 km/h (0 Bft) W-NW 0,00 h 0,051 mm 0,0 UV-I 11 W/m 10,7 C 14,2 C 1,8 km/h (1 Bft)
14.08.2014 21:00 12,6 C 87 % 1012,4 hPa 0,0 l/m 0,4 km/h (0 Bft) S 0,00 h 0,000 mm 0,0 UV-I 0 W/m 10,5 C 12,6 C 1,0 km/h (0 Bft)
14.08.2014 22:00 11,4 C 91 % 1012,6 hPa 0,0 l/m 1,2 km/h (1 Bft) S 0,00 h 0,000 mm 0,0 UV-I 0 W/m 9,9 C 11,4 C 2,5 km/h (1 Bft)
14.08.2014 23:00 10,6 C 92 % 1012,6 hPa 0,0 l/m 0,6 km/h (0 Bft) S-SO 0,00 h 0,000 mm 0,0 UV-I 0 W/m 9,3 C 10,6 C 1,7 km/h (1 Bft)
15.08.2014 00:00 10,2 C 93 % 1012,6 hPa 0,0 l/m 0,7 km/h (0 Bft) S 0,00 h 0,000 mm 0,0 UV-I 0 W/m 9,1 C 10,2 C 2,1 km/h (1 Bft)
15.08.2014 01:00 10,0 C 92 % 1012,5 hPa 0,0 l/m 1,7 km/h (1 Bft) O-SO 0,00 h 0,000 mm 0,0 UV-I 0 W/m 8,8 C 10,0 C 3,4 km/h (1 Bft)
15.08.2014 02:00 9,3 C 94 % 1012,4 hPa 0,0 l/m 0,5 km/h (0 Bft) O-SO 0,00 h 0,000 mm 0,0 UV-I 0 W/m 8,4 C 9,3 C 1,7 km/h (1 Bft)
15.08.2014 03:00 9,3 C 94 % 1012,6 hPa 0,2 l/m 0,9 km/h (0 Bft) O 0,00 h 0,000 mm 0,0 UV-I 0 W/m 8,4 C 9,3 C 2,1 km/h (1 Bft)
15.08.2014 04:00 10,1 C 92 % 1012,5 hPa 0,0 l/m 0,6 km/h (0 Bft) SO 0,00 h 0,000 mm 0,0 UV-I 0 W/m 9,0 C 10,1 C 1,4 km/h (1 Bft)
15.08.2014 05:00 9,5 C 94 % 1012,4 hPa 0,0 l/m 0,3 km/h (0 Bft) O-SO 0,00 h 0,000 mm 0,0 UV-I 5 W/m 8,6 C 9,5 C 0,8 km/h (0 Bft)
15.08.2014 06:00 10,5 C 94 % 1012,4 hPa 0,0 l/m 2,6 km/h (1 Bft) S 0,03 h 0,000 mm 0,0 UV-I 25 W/m 9,5 C 10,5 C 4,9 km/h (1 Bft)
15.08.2014 07:00 11,6 C 93 % 1012,6 hPa 0,0 l/m 3,3 km/h (1 Bft) S 0,55 h 0,000 mm 0,0 UV-I 53 W/m 10,4 C 11,6 C 6,1 km/h (2 Bft)
15.08.2014 08:00 12,2 C 93 % 1012,7 hPa 0,0 l/m 3,4 km/h (1 Bft) S 0,83 h 0,025 mm 0,6 UV-I 81 W/m 11,0 C 12,2 C 5,8 km/h (2 Bft)
15.08.2014 09:00 13,2 C 91 % 1012,7 hPa 0,0 l/m 5,2 km/h (1 Bft) S 1,00 h 0,051 mm 1,1 UV-I 169 W/m 11,7 C 13,0 C 8,4 km/h (2 Bft)
15.08.2014 10:00 14,3 C 86 % 1012,7 hPa 0,0 l/m 6,4 km/h (2 Bft) S 1,00 h 0,102 mm 1,9 UV-I 266 W/m 12,0 C 13,8 C 10,5 km/h (2 Bft)
15.08.2014 11:00 15,4 C 80 % 1012,5 hPa 0,0 l/m 7,3 km/h (2 Bft) S 1,00 h 0,152 mm 2,6 UV-I 312 W/m 12,0 C 14,7 C 11,4 km/h (2 Bft)
15.08.2014 12:00 14,6 C 83 % 1012,6 hPa 4,2 l/m 7,6 km/h (2 Bft) W-SW 0,82 h 0,203 mm 1,4 UV-I 138 W/m 11,6 C 13,5 C 12,1 km/h (2 Bft)
15.08.2014 13:00 13,3 C 91 % 1012,9 hPa 1,6 l/m 2,6 km/h (1 Bft) W-NW 1,00 h 0,102 mm 3,2 UV-I 457 W/m 11,8 C 13,1 C 5,0 km/h (1 Bft)
15.08.2014 14:00 15,8 C 81 % 1012,2 hPa 0,0 l/m 6,9 km/h (2 Bft) W-SW 1,00 h 0,229 mm 3,9 UV-I 517 W/m 12,5 C 15,2 C 11,1 km/h (2 Bft)
15.08.2014 15:00 14,6 C 83 % 1012,3 hPa 1,4 l/m 5,8 km/h (2 Bft) W-NW 0,70 h 0,305 mm 1,4 UV-I 127 W/m 11,8 C 13,9 C 9,1 km/h (2 Bft)
15.08.2014 16:00 13,6 C 91 % 1012,6 hPa 0,0 l/m 5,1 km/h (1 Bft) W-NW 0,95 h 0,076 mm 0,9 UV-I 139 W/m 12,1 C 13,3 C 8,3 km/h (2 Bft)
15.08.2014 17:00 14,5 C 87 % 1012,4 hPa 0,0 l/m 4,2 km/h (1 Bft) W-NW 1,00 h 0,076 mm 0,9 UV-I 181 W/m 12,4 C 14,4 C 7,1 km/h (2 Bft)
15.08.2014 18:00 14,5 C 82 % 1012,5 hPa 0,0 l/m 6,1 km/h (2 Bft) W-NW 0,43 h 0,102 mm 0,7 UV-I 94 W/m 11,4 C 14,2 C 9,5 km/h (2 Bft)
15.08.2014 19:00 12,9 C 89 % 1013,0 hPa 2,0 l/m 4,7 km/h (1 Bft) W-NW 0,00 h 0,076 mm 0,0 UV-I 18 W/m 11,2 C 12,5 C 7,5 km/h (2 Bft)
15.08.2014 20:00 11,8 C 91 % 1013,4 hPa 0,2 l/m 3,9 km/h (1 Bft) W-SW 0,00 h 0,025 mm 0,0 UV-I 0 W/m 10,3 C 11,8 C 6,4 km/h (2 Bft)
15.08.2014 21:00 11,2 C 93 % 1014,0 hPa 0,0 l/m 4,7 km/h (1 Bft) SW 0,00 h 0,000 mm 0,0 UV-I 0 W/m 10,0 C 11,0 C 8,0 km/h (2 Bft)
15.08.2014 22:00 11,1 C 93 % 1014,3 hPa 0,0 l/m 2,1 km/h (1 Bft) W-SW 0,00 h 0,000 mm 0,0 UV-I 0 W/m 10,1 C 11,1 C 4,3 km/h (1 Bft)
15.08.2014 23:00 11,2 C 95 % 1014,6 hPa 0,2 l/m 1,5 km/h (1 Bft) S-SW 0,00 h 0,000 mm 0,0 UV-I 0 W/m 10,4 C 11,2 C 3,7 km/h (1 Bft)
16.08.2014 00:00 11,2 C 95 % 1014,7 hPa 0,0 l/m 1,9 km/h (1 Bft) SW 0,00 h 0,000 mm 0,0 UV-I 0 W/m 10,5 C 11,2 C 4,5 km/h (1 Bft)
16.08.2014 01:00 11,4 C 95 % 1014,7 hPa 0,0 l/m 4,9 km/h (1 Bft) W-SW 0,00 h 0,000 mm 0,0 UV-I 0 W/m 10,7 C 11,4 C 8,8 km/h (2 Bft)
16.08.2014 02:00 11,5 C 95 % 1014,6 hPa 0,0 l/m 3,6 km/h (1 Bft) W-SW 0,00 h 0,000 mm 0,0 UV-I 0 W/m 10,8 C 11,5 C 6,6 km/h (2 Bft)
16.08.2014 03:00 11,6 C 95 % 1014,7 hPa 0,2 l/m 3,8 km/h (1 Bft) W-SW 0,00 h 0,000 mm 0,0 UV-I 0 W/m 10,8 C 11,6 C 6,8 km/h (2 Bft)
16.08.2014 04:00 11,7 C 96 % 1014,8 hPa 0,4 l/m 5,3 km/h (1 Bft) W-NW 0,00 h 0,000 mm 0,0 UV-I 0 W/m 11,0 C 11,5 C 8,2 km/h (2 Bft)
16.08.2014 05:00 11,5 C 96 % 1015,1 hPa 1,0 l/m 5,0 km/h (1 Bft) W-SW 0,00 h 0,000 mm 0,0 UV-I 0 W/m 10,9 C 11,4 C 8,2 km/h (2 Bft)
16.08.2014 06:00 11,4 C 96 % 1015,5 hPa 0,6 l/m 3,8 km/h (1 Bft) W-SW 0,00 h 0,000 mm 0,0 UV-I 9 W/m 10,8 C 11,4 C 6,4 km/h (2 Bft)
16.08.2014 07:00 11,5 C 96 % 1015,8 hPa 0,0 l/m 4,1 km/h (1 Bft) W-SW 0,00 h 0,000 mm 0,0 UV-I 26 W/m 10,9 C 11,5 C 6,9 km/h (2 Bft)
16.08.2014 08:00 11,7 C 95 % 1016,3 hPa 0,0 l/m 6,1 km/h (2 Bft) W-SW 0,37 h 0,025 mm 0,5 UV-I 52 W/m 11,0 C 11,3 C 9,6 km/h (2 Bft)
16.08.2014 09:00 12,0 C 94 % 1016,7 hPa 0,0 l/m 6,5 km/h (2 Bft) W-SW 0,60 h 0,025 mm 0,5 UV-I 57 W/m 11,1 C 11,4 C 10,3 km/h (2 Bft)
16.08.2014 10:00 12,6 C 93 % 1017,1 hPa 0,0 l/m 6,0 km/h (2 Bft) W-NW 1,00 h 0,025 mm 1,3 UV-I 179 W/m 11,5 C 12,3 C 9,5 km/h (2 Bft)
16.08.2014 11:00 13,9 C 88 % 1017,2 hPa 0,0 l/m 7,3 km/h (2 Bft) W-SW 1,00 h 0,102 mm 2,2 UV-I 288 W/m 11,8 C 13,0 C 11,3 km/h (2 Bft)
16.08.2014 12:00 16,5 C 77 % 1017,0 hPa 0,0 l/m 9,8 km/h (2 Bft) W-NW 1,00 h 0,178 mm 5,2 UV-I 833 W/m 12,4 C 14,9 C 14,7 km/h (3 Bft)
16.08.2014 13:00 16,6 C 73 % 1016,9 hPa 0,2 l/m 9,8 km/h (2 Bft) W-SW 1,00 h 0,432 mm 2,8 UV-I 382 W/m 11,7 C 15,0 C 15,0 km/h (3 Bft)
16.08.2014 14:00 14,6 C 85 % 1017,2 hPa 0,0 l/m 6,0 km/h (2 Bft) W-NW 1,00 h 0,229 mm 2,7 UV-I 419 W/m 12,0 C 14,2 C 9,5 km/h (2 Bft)
16.08.2014 15:00 17,1 C 73 % 1016,8 hPa 0,0 l/m 8,1 km/h (2 Bft) W-NW 1,00 h 0,229 mm 3,7 UV-I 586 W/m 12,1 C 16,1 C 12,5 km/h (3 Bft)
16.08.2014 16:00 18,1 C 60 % 1016,6 hPa 0,0 l/m 11,8 km/h (2 Bft) W 1,00 h 0,330 mm 2,9 UV-I 540 W/m 10,2 C 16,0 C 18,1 km/h (3 Bft)
16.08.2014 17:00 17,3 C 64 % 1016,8 hPa 0,0 l/m 13,6 km/h (3 Bft) W-SW 1,00 h 0,356 mm 1,5 UV-I 398 W/m 10,5 C 14,5 C 20,6 km/h (4 Bft)
16.08.2014 18:00 15,6 C 73 % 1017,0 hPa 0,0 l/m 7,0 km/h (2 Bft) W-NW 0,92 h 0,254 mm 0,7 UV-I 69 W/m 10,8 C 14,6 C 10,7 km/h (2 Bft)
16.08.2014 19:00 14,9 C 75 % 1017,3 hPa 0,6 l/m 8,3 km/h (2 Bft) W-NW 0,18 h 0,051 mm 0,0 UV-I 30 W/m 10,4 C 13,7 C 12,9 km/h (3 Bft)
16.08.2014 20:00 12,2 C 92 % 1017,9 hPa 0,6 l/m 2,2 km/h (1 Bft) S 0,00 h 0,051 mm 0,0 UV-I 8 W/m 10,9 C 12,2 C 4,0 km/h (1 Bft)
16.08.2014 21:00 11,8 C 93 % 1018,3 hPa 0,0 l/m 0,6 km/h (0 Bft) S 0,00 h 0,000 mm 0,0 UV-I 0 W/m 10,7 C 11,8 C 2,1 km/h (1 Bft)
16.08.2014 22:00 11,4 C 93 % 1018,4 hPa 0,0 l/m 3,5 km/h (1 Bft) SW 0,00 h 0,000 mm 0,0 UV-I 0 W/m 10,3 C 11,4 C 6,0 km/h (2 Bft)
16.08.2014 23:00 11,2 C 93 % 1018,7 hPa 0,0 l/m 1,4 km/h (1 Bft) S-SW 0,00 h 0,000 mm 0,0 UV-I 0 W/m 10,2 C 11,2 C 3,5 km/h (1 Bft)
17.08.2014 00:00 11,0 C 95 % 1018,6 hPa 0,0 l/m 1,4 km/h (1 Bft) S 0,00 h 0,000 mm 0,0 UV-I 0 W/m 10,2 C 11,0 C 3,3 km/h (1 Bft)
17.08.2014 01:00 11,1 C 95 % 1018,3 hPa 0,0 l/m 1,8 km/h (1 Bft) S 0,00 h 0,000 mm 0,0 UV-I 0 W/m 10,3 C 11,1 C 3,3 km/h (1 Bft)
17.08.2014 02:00 11,1 C 95 % 1018,0 hPa 0,0 l/m 2,2 km/h (1 Bft) S-SO 0,00 h 0,000 mm 0,0 UV-I 0 W/m 10,3 C 11,1 C 4,0 km/h (1 Bft)
17.08.2014 03:00 11,1 C 95 % 1017,8 hPa 0,0 l/m 1,2 km/h (1 Bft) S 0,00 h 0,000 mm 0,0 UV-I 0 W/m 10,3 C 11,1 C 3,2 km/h (1 Bft)
17.08.2014 04:00 11,1 C 95 % 1017,2 hPa 0,0 l/m 2,8 km/h (1 Bft) S 0,00 h 0,000 mm 0,0 UV-I 0 W/m 10,3 C 11,1 C 5,5 km/h (1 Bft)
17.08.2014 05:00 11,2 C 95 % 1016,9 hPa 0,4 l/m 2,7 km/h (1 Bft) SW 0,00 h 0,000 mm 0,0 UV-I 0 W/m 10,5 C 11,2 C 5,2 km/h (1 Bft)
17.08.2014 06:00 11,2 C 96 % 1017,0 hPa 0,2 l/m 2,2 km/h (1 Bft) S-SW 0,00 h 0,000 mm 0,0 UV-I 7 W/m 10,6 C 11,2 C 4,9 km/h (1 Bft)
17.08.2014 07:00 11,5 C 96 % 1017,0 hPa 0,0 l/m 2,7 km/h (1 Bft) S-SW 0,08 h 0,000 mm 0,0 UV-I 24 W/m 10,8 C 11,5 C 5,0 km/h (1 Bft)
17.08.2014 08:00 11,9 C 95 % 1016,8 hPa 0,0 l/m 4,1 km/h (1 Bft) S 0,25 h 0,000 mm 0,5 UV-I 43 W/m 11,2 C 11,9 C 7,6 km/h (2 Bft)
17.08.2014 09:00 12,5 C 94 % 1016,5 hPa 0,0 l/m 6,1 km/h (2 Bft) S 0,87 h 0,025 mm 1,1 UV-I 143 W/m 11,6 C 12,0 C 9,5 km/h (2 Bft)
17.08.2014 10:00 13,3 C 92 % 1016,2 hPa 0,0 l/m 7,8 km/h (2 Bft) S 1,00 h 0,076 mm 1,3 UV-I 174 W/m 12,0 C 12,2 C 13,1 km/h (3 Bft)
17.08.2014 11:00 13,9 C 91 % 1016,0 hPa 0,0 l/m 7,1 km/h (2 Bft) SW 1,00 h 0,102 mm 1,6 UV-I 191 W/m 12,4 C 13,2 C 11,5 km/h (2 Bft)
17.08.2014 12:00 15,5 C 83 % 1015,4 hPa 0,0 l/m 9,2 km/h (2 Bft) SW 1,00 h 0,102 mm 3,7 UV-I 429 W/m 12,7 C 14,1 C 14,4 km/h (3 Bft)
17.08.2014 13:00 17,1 C 74 % 1014,6 hPa 0,0 l/m 10,8 km/h (2 Bft) W-SW 1,00 h 0,279 mm 3,2 UV-I 367 W/m 12,4 C 15,2 C 17,2 km/h (3 Bft)
17.08.2014 14:00 17,8 C 69 % 1013,7 hPa 0,0 l/m 9,0 km/h (2 Bft) SW 1,00 h 0,254 mm 3,1 UV-I 443 W/m 12,0 C 16,8 C 14,5 km/h (3 Bft)
17.08.2014 15:00 18,9 C 63 % 1012,9 hPa 0,0 l/m 9,7 km/h (2 Bft) W-SW 1,00 h 0,279 mm 2,7 UV-I 323 W/m 11,7 C 17,6 C 15,2 km/h (3 Bft)
17.08.2014 16:00 18,7 C 61 % 1012,3 hPa 0,0 l/m 10,3 km/h (2 Bft) W 1,00 h 0,254 mm 1,9 UV-I 253 W/m 11,0 C 17,1 C 15,6 km/h (3 Bft)
17.08.2014 17:00 18,1 C 60 % 1011,9 hPa 0,0 l/m 11,9 km/h (2 Bft) W-SW 1,00 h 0,203 mm 1,2 UV-I 205 W/m 10,4 C 16,0 C 17,6 km/h (3 Bft)
17.08.2014 18:00 18,0 C 61 % 1011,4 hPa 0,0 l/m 8,7 km/h (2 Bft) W-SW 1,00 h 0,178 mm 0,7 UV-I 116 W/m 10,3 C 17,0 C 13,4 km/h (3 Bft)
17.08.2014 19:00 17,6 C 63 % 1011,1 hPa 0,0 l/m 6,3 km/h (2 Bft) W-SW 0,40 h 0,102 mm 0,0 UV-I 43 W/m 10,4 C 17,0 C 10,2 km/h (2 Bft)
17.08.2014 20:00 15,9 C 70 % 1011,0 hPa 0,0 l/m 4,9 km/h (1 Bft) S-SW 0,00 h 0,051 mm 0,0 UV-I 9 W/m 10,5 C 15,7 C 8,5 km/h (2 Bft)
17.08.2014 21:00 15,7 C 68 % 1011,1 hPa 0,0 l/m 4,8 km/h (1 Bft) SW 0,00 h 0,025 mm 0,0 UV-I 0 W/m 9,8 C 15,4 C 8,1 km/h (2 Bft)
17.08.2014 22:00 14,8 C 73 % 1011,0 hPa 0,0 l/m 4,5 km/h (1 Bft) SW 0,00 h 0,051 mm 0,0 UV-I 0 W/m 9,9 C 14,8 C 7,8 km/h (2 Bft)
17.08.2014 23:00 14,5 C 74 % 1010,7 hPa 0,0 l/m 4,3 km/h (1 Bft) SW 0,00 h 0,025 mm 0,0 UV-I 0 W/m 10,0 C 14,5 C 7,8 km/h (2 Bft)
Min-Datum _ 11.08.14 11.08.14 13.08.14 - 11.08.14 - - - - - 11.08.14 14.08.14 11.08.14
_ Min-Zeit 22:21 14:48 17:41 - 00:30 - - - - - 14:51 00:13 20:01
Minimum _ 0,0 C 43 % 1003,8 hPa - 0,0 km/h (0 Bft) - - - - - 7,6 C 5,7 C 0,0 km/h (0 Bft)
Max-Datum _ 11.08.14 17.08.14 16.08.14 15.08.14 14.08.14 - 15.08.14 11.08.14 12.08.14 16.08.14 11.08.14 11.08.14 11.08.14
_ Max-Zeit 15:37 07:48 23:59 12:51 00:13 - 10:26 13:00 13:13 13:18 04:25 15:35 00:02
Maximum _ 22,4 C 97 % 1018,8 hPa 4,2 l/m 27,4 km/h
W-SW (4 Bft)
- 0,07 h 0,483 mm 7,0 UV-I 1083 W/m 17,0 C 22,0 C 40,2 km/h
SO (6 Bft)
Durchschnitt _ 14,8 C 82 % 1012,5 hPa #18,4 l/m 5,3 km/h (1 Bft) W-SW #74:17 h #14,700 mm 1,9 UV-I 204 W/m 11,3 C 14,2 C 8,6 km/h (2 Bft)